Cromwell, Washington
Current Conditions -  °F | °C
As of 10:53 PM on Sunday 21 Dec 2014 (Local Time) from KTIW Reporting Station
Broken Clouds Broken Clouds  
Wind Chill: 50°   Ceiling: 12000
Heat Index: 50°   Visibility: 10mi
Dew Point: 46°   Wind: 14mph
Humidity: 86%   Direction: 200°SSW
Pressure: 30.1"   Gusts: 22mph
Location:  47.2986°N, 122.616°W
Report Text: KTIW 220653Z AUTO 20012G19KT 10SM BKN120 10/08 A3010 RMK AO2 SLP195 T01000078
Loading
Personal Weather Stations






























Interactive Weather Map New forecast layout! Learn more

10-Day Weather Forecast

Advertisements
Track Severe Weather on mobile